Terminal Aerodrome Forecast
Issued by NWS

Home | Current Version | Previous Version | Text Only | Print | Product List | Glossary On
Versions: 1 2 3 4 5 6 7 8 9 10 11 12 13 14 15 16 17 18 19 20 21 22 23 24 25 26
893
FTUS42 KFFC 182200 AAA
TAFRYY
TAF AMD
KRYY 182200Z 1822/1918 17006KT P6SM SCT020 BKN035
      TEMPO 1822/1824 6SM -SHRA BKN020
     FM190200 11008KT 6SM -DZ BR OVC009
     FM190800 12007KT 3SM -DZ BR OVC006
     FM191500 14007KT P6SM BKN012=

USA.gov is the U.S. government's official web portal to all federal, state and local government web resources and services.